Jean Anne — WDC3786 — position and weather

sailwx.info

Track history (hours):
 
Tides and Currents Weather Stations Pressure Air Temp Water Temp Dewpoint Dewpoint Depression Visibility Wind Speed Wind Dir Waves Ship Positions

Jean Anne

Owner: PASHA HAWAII TRANSPORT LINES LLC, Raleigh, NC. More information available from US FCC via Universal Licensing System and Coast Guard Vessel Documentation Center.

Last reported at 2014-Dec-15 18:00 UTC. Time now 2014-Dec-19 06:31 UTC.
Position N 22°30' W 152°36'.

Type: Cargo ship. MMSI: 367003380.

Wind from 050 at 19 knots

Barometer 1023.2 mb
Air temperature 20.0 ° C
Visibility: greater than 10.8 NM
Dewpoint 16.1 ° C

Date/timePositionNaut miles runAvg speedWind from/ knotsBaromVisibWave heightAir tempDewpointWater temp
2014-Dec-15 18:00N 22°30' W 152°36'10918.2 050 / 191023.210.8 20.016.1
2014-Dec-15 12:00N 23°00' W 150°42'21618.0 070 / 201022.910.8 19.014.7
2014-Dec-15 00:00N 23°54' W 146°54'   010 / 251020.610.8 20.012.0
2014-Dec-11 16:00N 30°12' W 121°54'10315.9 210 / 191014.510.8 2.020.017.7
2014-Dec-11 09:31N 30°43' W 119°60'1816.4
2014-Dec-11 08:25N 30°47' W 119°40'1416.5
2014-Dec-11 07:33N 30°51' W 119°24'1616.3
2014-Dec-11 06:33N 30°56' W 119°06'1616.5
2014-Dec-11 05:33N 31°00' W 118°47'1615.8
2014-Dec-11 04:33N 31°08' W 118°31'1716.9
2014-Dec-11 03:33N 31°21' W 118°19'1717.1
2014-Dec-11 02:33N 31°35' W 118°08'3516.6
2014-Dec-11 00:28N 32°03' W 117°44'1415.5
2014-Dec-10 23:33N 32°15' W 117°34'1515.0
2014-Dec-10 22:34N 32°27' W 117°24'1413.5
2014-Dec-10 21:33N 32°38' W 117°14'6 6.0
2014-Dec-10 20:33N 32°40' W 117°08'1 1.0
2014-Dec-10 19:33N 32°39' W 117°07'0 0.0
2014-Dec-10 18:33N 32°39' W 117°07'0 0.0
2014-Dec-10 17:33N 32°39' W 117°07'0 0.0
2014-Dec-10 16:33N 32°39' W 117°07'0 0.0
2014-Dec-10 15:33N 32°39' W 117°07'0 0.0
2014-Dec-10 14:33N 32°39' W 117°07'0 0.0
2014-Dec-10 13:32N 32°39' W 117°07'0 0.0
2014-Dec-10 12:29N 32°39' W 117°07'0 0.0
2014-Dec-10 11:32N 32°39' W 117°07'0 0.0
2014-Dec-10 10:32N 32°39' W 117°07'0 0.0
2014-Dec-10 09:32N 32°39' W 117°07'0 0.0
2014-Dec-10 08:32N 32°39' W 117°07'0 0.0
2014-Dec-10 07:32N 32°39' W 117°07'0 0.0
2014-Dec-10 06:32N 32°39' W 117°07'0 0.0
2014-Dec-10 05:32N 32°39' W 117°07'0 0.0
2014-Dec-10 04:32N 32°39' W 117°07'0 0.0
2014-Dec-10 03:32N 32°39' W 117°07'0 0.0
2014-Dec-10 02:32N 32°39' W 117°07'0 0.0
2014-Dec-10 01:32N 32°39' W 117°07'0 0.0
2014-Dec-10 00:32N 32°39' W 117°07'0 0.0
2014-Dec-09 23:32N 32°39' W 117°07'0 0.0
2014-Dec-09 22:32N 32°39' W 117°07'0 0.0
2014-Dec-09 21:32N 32°39' W 117°07'0 0.0
2014-Dec-09 20:32N 32°39' W 117°07'0 0.0
2014-Dec-09 19:32N 32°39' W 117°07'0 0.0
2014-Dec-09 18:32N 32°39' W 117°07'0 0.0
2014-Dec-09 17:32N 32°39' W 117°07'0 0.0
2014-Dec-09 16:32N 32°39' W 117°07'0 0.0
2014-Dec-09 15:32N 32°39' W 117°07'6 6.2
2014-Dec-09 14:33N 32°43' W 117°13'10 9.6
2014-Dec-09 13:34N 32°34' W 117°17'1212.4
2014-Dec-09 12:34N 32°24' W 117°26'1515.0
2014-Dec-09 11:33N 32°12' W 117°37'1919.2
2014-Dec-09 10:33N 31°56' W 117°50'1918.8
2014-Dec-09 09:34N 31°41' W 118°03'1919.1
2014-Dec-09 08:33N 31°25' W 118°16'1919.0
2014-Dec-09 07:33N 31°11' W 118°31'2818.9
2014-Dec-09 06:06N 30°56' W 118°58'1119.5
2014-Dec-09 05:33N 30°53' W 119°10'21818.9
2014-Dec-08 18:00N 29°36' W 123°06'95419.9 250 / 21024.027.0 20.017.7
2014-Dec-06 18:00N 24°30' W 140°00'   200 / 91019.010.8 0.522.517.2
Track history (hours):
 
Tides and Currents Weather Stations Pressure Air Temp Water Temp Dewpoint Dewpoint Depression Visibility Wind Speed Wind Dir Waves Ship Positions

Jean Anne

Owner: PASHA HAWAII TRANSPORT LINES LLC, Raleigh, NC. More information available from US FCC via Universal Licensing System and Coast Guard Vessel Documentation Center.

Last reported at 2014-Dec-15 18:00 UTC. Time now 2014-Dec-19 06:31 UTC.
Position N 22°30' W 152°36'.

Type: Cargo ship. MMSI: 367003380.

Wind from 050 at 19 knots

Barometer 1023.2 mb
Air temperature 20.0 ° C
Visibility: greater than 10.8 NM
Dewpoint 16.1 ° C

Date/timePositionNaut miles runAvg speedWind from/ knotsBaromVisibWave heightAir tempDewpointWater temp
2014-Dec-15 18:00N 22°30' W 152°36'10918.2 050 / 191023.210.8 20.016.1
2014-Dec-15 12:00N 23°00' W 150°42'21618.0 070 / 201022.910.8 19.014.7
2014-Dec-15 00:00N 23°54' W 146°54'   010 / 251020.610.8 20.012.0
2014-Dec-11 16:00N 30°12' W 121°54'10315.9 210 / 191014.510.8 2.020.017.7
2014-Dec-11 09:31N 30°43' W 119°60'1816.4
2014-Dec-11 08:25N 30°47' W 119°40'1416.5
2014-Dec-11 07:33N 30°51' W 119°24'1616.3
2014-Dec-11 06:33N 30°56' W 119°06'1616.5
2014-Dec-11 05:33N 31°00' W 118°47'1615.8
2014-Dec-11 04:33N 31°08' W 118°31'1716.9
2014-Dec-11 03:33N 31°21' W 118°19'1717.1
2014-Dec-11 02:33N 31°35' W 118°08'3516.6
2014-Dec-11 00:28N 32°03' W 117°44'1415.5
2014-Dec-10 23:33N 32°15' W 117°34'1515.0
2014-Dec-10 22:34N 32°27' W 117°24'1413.5
2014-Dec-10 21:33N 32°38' W 117°14'6 6.0
2014-Dec-10 20:33N 32°40' W 117°08'1 1.0
2014-Dec-10 19:33N 32°39' W 117°07'0 0.0
2014-Dec-10 18:33N 32°39' W 117°07'0 0.0
2014-Dec-10 17:33N 32°39' W 117°07'0 0.0
2014-Dec-10 16:33N 32°39' W 117°07'0 0.0
2014-Dec-10 15:33N 32°39' W 117°07'0 0.0
2014-Dec-10 14:33N 32°39' W 117°07'0 0.0
2014-Dec-10 13:32N 32°39' W 117°07'0 0.0
2014-Dec-10 12:29N 32°39' W 117°07'0 0.0
2014-Dec-10 11:32N 32°39' W 117°07'0 0.0
2014-Dec-10 10:32N 32°39' W 117°07'0 0.0
2014-Dec-10 09:32N 32°39' W 117°07'0 0.0
2014-Dec-10 08:32N 32°39' W 117°07'0 0.0
2014-Dec-10 07:32N 32°39' W 117°07'0 0.0
2014-Dec-10 06:32N 32°39' W 117°07'0 0.0
2014-Dec-10 05:32N 32°39' W 117°07'0 0.0
2014-Dec-10 04:32N 32°39' W 117°07'0 0.0
2014-Dec-10 03:32N 32°39' W 117°07'0 0.0
2014-Dec-10 02:32N 32°39' W 117°07'0 0.0
2014-Dec-10 01:32N 32°39' W 117°07'0 0.0
2014-Dec-10 00:32N 32°39' W 117°07'0 0.0
2014-Dec-09 23:32N 32°39' W 117°07'0 0.0
2014-Dec-09 22:32N 32°39' W 117°07'0 0.0
2014-Dec-09 21:32N 32°39' W 117°07'0 0.0
2014-Dec-09 20:32N 32°39' W 117°07'0 0.0
2014-Dec-09 19:32N 32°39' W 117°07'0 0.0
2014-Dec-09 18:32N 32°39' W 117°07'0 0.0
2014-Dec-09 17:32N 32°39' W 117°07'0 0.0
2014-Dec-09 16:32N 32°39' W 117°07'0 0.0
2014-Dec-09 15:32N 32°39' W 117°07'6 6.2
2014-Dec-09 14:33N 32°43' W 117°13'10 9.6
2014-Dec-09 13:34N 32°34' W 117°17'1212.4
2014-Dec-09 12:34N 32°24' W 117°26'1515.0
2014-Dec-09 11:33N 32°12' W 117°37'1919.2
2014-Dec-09 10:33N 31°56' W 117°50'1918.8
2014-Dec-09 09:34N 31°41' W 118°03'1919.1
2014-Dec-09 08:33N 31°25' W 118°16'1919.0
2014-Dec-09 07:33N 31°11' W 118°31'2818.9
2014-Dec-09 06:06N 30°56' W 118°58'1119.5
2014-Dec-09 05:33N 30°53' W 119°10'21818.9
2014-Dec-08 18:00N 29°36' W 123°06'95419.9 250 / 21024.027.0 20.017.7
2014-Dec-06 18:00N 24°30' W 140°00'   200 / 91019.010.8 0.522.517.2

Dump ship's entire track history